Aviation Digital Data Service (ADDS)

Output produced by METARs form (1133 UTC 21 November 2018)
found at http://www.aviationweather.gov/metar/data/
 
LHPP 211116Z 31003KT 0700 -DZ OVC003 04/04 Q1017
LHPP 211115Z 31003KT 0700 -DZ OVC003 04/04 Q1016
LHPP 211045Z 27003KT 1600 -DZ OVC003 04/04 Q1016
LHPP 211043Z 27003KT 1500 -DZ OVC003 04/04 Q1017
LHPP 211015Z 25002KT 1200 -DZ OVC003 04/04 Q1016
LHPP 210947Z AUTO /////KT //// ////// 04/04 Q1016
LHPP 210945Z 00000KT 1200 -DZ OVC003 04/04 Q1016
LHPP 210938Z 00000KT 1200 -DZ OVC003 04/04 Q1017
LHPP 210916Z 00000KT 0600 -DZ OVC003 04/04 Q1017
LHPP 210915Z 00000KT 0600 -DZ OVC003 04/04 Q1016
LHPP 210845Z 32002KT 0300 -DZ VV002 04/04 Q1016
LHPP 210815Z 33003KT 0300 -DZ VV002 04/03 Q1016
LHPP 210745Z 00000KT 0300 -DZ VV002 04/04 Q1015
LHPP 210742Z 00000KT 0300 FG VV002 04/04 Q1016
LHPP 210715Z 00000KT 0150 -DZ VV001 04/04 Q1015
LHPP 210645Z 09002KT 0150 FG VV001 04/04 Q1015
LHPP 210615Z 09003KT 0150 FG VV001 04/04 Q1015
LHPP 210614Z 09003KT 0150 FG VV001 04/04 Q1016
LHPP 210545Z 09003KT 0200 FG VV002 04/03 Q1014
TAF LHPP 211115Z 2112/2121 VRB03KT 3000 BR OVC006 
     TEMPO 2112/2121 1200 BCFG -DZ OVC003 
     PROB30 
     TEMPO 2116/2121 0600 FG OVC001